sensor_id;sensor_type;location;lat;lon;timestamp;pressure;altitude;pressure_sealevel;temperature;humidity
8705;BME280;4389;41.932;25.904;2023-03-18T00:01:45;101146.16;;;1.65;93.01
8705;BME280;4389;41.932;25.904;2023-03-18T00:04:12;101142.66;;;1.64;94.02
8705;BME280;4389;41.932;25.904;2023-03-18T00:06:41;101131.47;;;1.62;94.09
8705;BME280;4389;41.932;25.904;2023-03-18T00:09:08;101144.75;;;1.56;94.50
8705;BME280;4389;41.932;25.904;2023-03-18T00:11:36;101150.69;;;1.38;94.99
8705;BME280;4389;41.932;25.904;2023-03-18T00:14:04;101146.53;;;1.34;95.05
8705;BME280;4389;41.932;25.904;2023-03-18T00:16:30;101136.13;;;1.34;95.20
8705;BME280;4389;41.932;25.904;2023-03-18T00:18:57;101139.16;;;1.24;95.09
8705;BME280;4389;41.932;25.904;2023-03-18T00:21:24;101139.03;;;1.05;95.40
8705;BME280;4389;41.932;25.904;2023-03-18T00:23:53;101140.38;;;1.15;95.71
8705;BME280;4389;41.932;25.904;2023-03-18T00:26:21;101133.91;;;1.25;95.92
8705;BME280;4389;41.932;25.904;2023-03-18T00:28:48;101129.59;;;1.24;95.62
8705;BME280;4389;41.932;25.904;2023-03-18T00:31:15;101135.59;;;1.26;96.12
8705;BME280;4389;41.932;25.904;2023-03-18T00:33:42;101133.09;;;1.23;96.70
8705;BME280;4389;41.932;25.904;2023-03-18T00:36:10;101126.81;;;1.29;96.37
8705;BME280;4389;41.932;25.904;2023-03-18T00:38:39;101128.06;;;1.40;96.88
8705;BME280;4389;41.932;25.904;2023-03-18T00:41:08;101123.63;;;1.42;96.11
8705;BME280;4389;41.932;25.904;2023-03-18T00:43:42;101119.28;;;1.43;95.98
8705;BME280;4389;41.932;25.904;2023-03-18T00:46:17;101118.94;;;1.50;95.77
8705;BME280;4389;41.932;25.904;2023-03-18T00:48:45;101117.97;;;1.31;95.57
8705;BME280;4389;41.932;25.904;2023-03-18T00:51:13;101105.97;;;1.29;95.95
8705;BME280;4389;41.932;25.904;2023-03-18T00:53:42;101106.25;;;1.21;95.75
8705;BME280;4389;41.932;25.904;2023-03-18T00:56:11;101110.44;;;1.04;95.88
8705;BME280;4389;41.932;25.904;2023-03-18T00:58:38;101111.53;;;0.98;96.20
8705;BME280;4389;41.932;25.904;2023-03-18T01:01:06;101102.69;;;0.81;96.74
8705;BME280;4389;41.932;25.904;2023-03-18T01:03:33;101113.28;;;0.76;96.93
8705;BME280;4389;41.932;25.904;2023-03-18T01:06:01;101114.66;;;0.63;97.14
8705;BME280;4389;41.932;25.904;2023-03-18T01:08:29;101113.31;;;0.53;97.77
8705;BME280;4389;41.932;25.904;2023-03-18T01:10:57;101100.31;;;0.53;98.60
8705;BME280;4389;41.932;25.904;2023-03-18T01:13:25;101106.84;;;0.63;98.00
8705;BME280;4389;41.932;25.904;2023-03-18T01:15:52;101101.19;;;0.75;98.64
8705;BME280;4389;41.932;25.904;2023-03-18T01:18:21;101105.13;;;0.85;98.13
8705;BME280;4389;41.932;25.904;2023-03-18T01:20:49;101104.38;;;0.82;97.49
8705;BME280;4389;41.932;25.904;2023-03-18T01:23:16;101098.69;;;0.72;98.04
8705;BME280;4389;41.932;25.904;2023-03-18T01:25:43;101088.94;;;0.77;97.86
8705;BME280;4389;41.932;25.904;2023-03-18T01:28:10;101104.38;;;0.82;97.51
8705;BME280;4389;41.932;25.904;2023-03-18T01:30:39;101101.50;;;0.89;97.46
8705;BME280;4389;41.932;25.904;2023-03-18T01:33:07;101093.00;;;0.84;97.56
8705;BME280;4389;41.932;25.904;2023-03-18T01:35:34;101091.22;;;0.85;97.61
8705;BME280;4389;41.932;25.904;2023-03-18T01:38:02;101091.41;;;0.80;97.49
8705;BME280;4389;41.932;25.904;2023-03-18T01:40:30;101089.00;;;0.76;97.23
8705;BME280;4389;41.932;25.904;2023-03-18T01:42:59;101087.59;;;0.67;97.66
8705;BME280;4389;41.932;25.904;2023-03-18T01:45:30;101088.75;;;0.82;98.14
8705;BME280;4389;41.932;25.904;2023-03-18T01:47:59;101075.78;;;0.80;96.88
8705;BME280;4389;41.932;25.904;2023-03-18T01:50:28;101080.88;;;0.62;96.60
8705;BME280;4389;41.932;25.904;2023-03-18T01:52:59;101084.44;;;0.59;96.91
8705;BME280;4389;41.932;25.904;2023-03-18T01:55:29;101087.84;;;0.61;96.67
8705;BME280;4389;41.932;25.904;2023-03-18T01:57:58;101080.16;;;0.58;96.76
8705;BME280;4389;41.932;25.904;2023-03-18T02:00:27;101083.78;;;0.31;96.68
8705;BME280;4389;41.932;25.904;2023-03-18T02:02:54;101078.75;;;0.27;96.89
8705;BME280;4389;41.932;25.904;2023-03-18T02:05:24;101085.25;;;0.38;97.20
8705;BME280;4389;41.932;25.904;2023-03-18T02:07:52;101078.44;;;0.36;97.50
8705;BME280;4389;41.932;25.904;2023-03-18T02:10:21;101082.66;;;0.38;97.11
8705;BME280;4389;41.932;25.904;2023-03-18T02:12:50;101083.69;;;0.34;96.76
8705;BME280;4389;41.932;25.904;2023-03-18T02:15:20;101089.28;;;0.47;96.51
8705;BME280;4389;41.932;25.904;2023-03-18T02:17:52;101086.25;;;0.57;96.99
8705;BME280;4389;41.932;25.904;2023-03-18T02:20:33;101084.34;;;0.62;96.57
8705;BME280;4389;41.932;25.904;2023-03-18T02:23:08;101076.41;;;0.65;96.85
8705;BME280;4389;41.932;25.904;2023-03-18T02:25:50;101080.34;;;0.75;96.97
8705;BME280;4389;41.932;25.904;2023-03-18T02:28:22;101077.63;;;0.78;96.55
8705;BME280;4389;41.932;25.904;2023-03-18T02:30:53;101079.13;;;0.84;97.00
8705;BME280;4389;41.932;25.904;2023-03-18T02:33:21;101078.47;;;1.00;96.99
8705;BME280;4389;41.932;25.904;2023-03-18T02:36:01;101084.53;;;1.01;96.51
8705;BME280;4389;41.932;25.904;2023-03-18T02:38:28;101076.38;;;1.08;96.66
8705;BME280;4389;41.932;25.904;2023-03-18T02:40:55;101080.03;;;1.04;96.24
8705;BME280;4389;41.932;25.904;2023-03-18T02:43:25;101090.28;;;1.09;96.11
8705;BME280;4389;41.932;25.904;2023-03-18T02:46:11;101088.78;;;1.03;96.62
8705;BME280;4389;41.932;25.904;2023-03-18T02:48:44;101091.00;;;1.12;96.90
8705;BME280;4389;41.932;25.904;2023-03-18T02:51:13;101080.63;;;1.11;96.76
8705;BME280;4389;41.932;25.904;2023-03-18T02:53:42;101084.88;;;1.13;96.48
8705;BME280;4389;41.932;25.904;2023-03-18T02:56:09;101087.06;;;1.02;96.60
8705;BME280;4389;41.932;25.904;2023-03-18T02:58:37;101086.81;;;1.08;96.75
8705;BME280;4389;41.932;25.904;2023-03-18T03:01:06;101090.13;;;1.12;96.00
8705;BME280;4389;41.932;25.904;2023-03-18T03:03:34;101093.59;;;0.91;95.16
8705;BME280;4389;41.932;25.904;2023-03-18T03:06:01;101093.25;;;1.00;95.45
8705;BME280;4389;41.932;25.904;2023-03-18T03:08:28;101082.84;;;1.00;95.80
8705;BME280;4389;41.932;25.904;2023-03-18T03:10:56;101083.84;;;0.96;95.89
8705;BME280;4389;41.932;25.904;2023-03-18T03:13:23;101088.25;;;1.15;96.08
8705;BME280;4389;41.932;25.904;2023-03-18T03:15:51;101087.06;;;1.02;95.80
8705;BME280;4389;41.932;25.904;2023-03-18T03:18:18;101088.41;;;1.12;95.69
8705;BME280;4389;41.932;25.904;2023-03-18T03:20:46;101086.63;;;1.13;94.97
8705;BME280;4389;41.932;25.904;2023-03-18T03:23:14;101083.72;;;1.20;95.25
8705;BME280;4389;41.932;25.904;2023-03-18T03:25:41;101088.97;;;1.19;94.58
8705;BME280;4389;41.932;25.904;2023-03-18T03:28:10;101091.72;;;1.16;94.38
8705;BME280;4389;41.932;25.904;2023-03-18T03:30:38;101081.50;;;1.11;94.82
8705;BME280;4389;41.932;25.904;2023-03-18T03:33:06;101090.34;;;1.07;94.80
8705;BME280;4389;41.932;25.904;2023-03-18T03:35:33;101085.47;;;1.20;94.95
8705;BME280;4389;41.932;25.904;2023-03-18T03:38:00;101086.84;;;1.28;94.61
8705;BME280;4389;41.932;25.904;2023-03-18T03:40:28;101091.53;;;1.20;94.21
8705;BME280;4389;41.932;25.904;2023-03-18T03:42:55;101096.88;;;1.17;94.40
8705;BME280;4389;41.932;25.904;2023-03-18T03:45:22;101091.59;;;1.19;94.46
8705;BME280;4389;41.932;25.904;2023-03-18T03:47:49;101093.38;;;1.18;94.31
8705;BME280;4389;41.932;25.904;2023-03-18T03:50:18;101089.72;;;1.22;94.95
8705;BME280;4389;41.932;25.904;2023-03-18T03:52:46;101089.59;;;1.25;95.30
8705;BME280;4389;41.932;25.904;2023-03-18T03:55:15;101089.72;;;1.22;95.18
8705;BME280;4389;41.932;25.904;2023-03-18T03:57:43;101086.19;;;1.23;95.36
8705;BME280;4389;41.932;25.904;2023-03-18T04:00:12;101093.47;;;1.15;95.26
8705;BME280;4389;41.932;25.904;2023-03-18T04:02:40;101086.81;;;1.30;94.94
8705;BME280;4389;41.932;25.904;2023-03-18T04:05:08;101094.66;;;1.28;94.88
8705;BME280;4389;41.932;25.904;2023-03-18T04:07:37;101097.41;;;1.25;94.54
8705;BME280;4389;41.932;25.904;2023-03-18T04:10:05;101098.25;;;1.26;95.57
8705;BME280;4389;41.932;25.904;2023-03-18T04:12:34;101105.34;;;1.22;95.07
8705;BME280;4389;41.932;25.904;2023-03-18T04:15:01;101097.59;;;1.21;94.99
8705;BME280;4389;41.932;25.904;2023-03-18T04:17:27;101098.78;;;1.34;94.95
8705;BME280;4389;41.932;25.904;2023-03-18T04:19:54;101105.22;;;1.25;95.50
8705;BME280;4389;41.932;25.904;2023-03-18T04:22:21;101107.31;;;1.37;95.62
8705;BME280;4389;41.932;25.904;2023-03-18T04:24:49;101108.75;;;1.44;95.62
8705;BME280;4389;41.932;25.904;2023-03-18T04:27:16;101103.72;;;1.61;95.44
8705;BME280;4389;41.932;25.904;2023-03-18T04:29:44;101105.00;;;1.71;94.22
8705;BME280;4389;41.932;25.904;2023-03-18T04:32:11;101108.91;;;1.61;93.61
8705;BME280;4389;41.932;25.904;2023-03-18T04:34:38;101113.22;;;1.82;93.83
8705;BME280;4389;41.932;25.904;2023-03-18T04:37:05;101107.75;;;1.88;93.51
8705;BME280;4389;41.932;25.904;2023-03-18T04:39:33;101115.69;;;2.05;93.00
8705;BME280;4389;41.932;25.904;2023-03-18T04:42:01;101120.13;;;1.83;92.11
8705;BME280;4389;41.932;25.904;2023-03-18T04:44:28;101118.09;;;1.90;92.27
8705;BME280;4389;41.932;25.904;2023-03-18T04:46:55;101122.59;;;2.06;92.41
8705;BME280;4389;41.932;25.904;2023-03-18T04:49:22;101129.75;;;2.21;91.48
8705;BME280;4389;41.932;25.904;2023-03-18T04:51:49;101126.44;;;2.36;91.76
8705;BME280;4389;41.932;25.904;2023-03-18T04:54:16;101121.34;;;2.53;90.85
8705;BME280;4389;41.932;25.904;2023-03-18T04:56:43;101123.50;;;2.62;89.79
8705;BME280;4389;41.932;25.904;2023-03-18T04:59:12;101124.06;;;2.69;89.46
8705;BME280;4389;41.932;25.904;2023-03-18T05:01:39;101122.44;;;3.03;89.03
8705;BME280;4389;41.932;25.904;2023-03-18T05:04:06;101128.28;;;3.08;88.02
8705;BME280;4389;41.932;25.904;2023-03-18T05:06:32;101130.25;;;3.22;87.45
8705;BME280;4389;41.932;25.904;2023-03-18T05:08:59;101135.06;;;3.12;87.37
8705;BME280;4389;41.932;25.904;2023-03-18T05:11:27;101132.47;;;3.29;87.34
8705;BME280;4389;41.932;25.904;2023-03-18T05:13:53;101126.19;;;3.50;86.82
8705;BME280;4389;41.932;25.904;2023-03-18T05:16:22;101131.41;;;3.50;86.45
8705;BME280;4389;41.932;25.904;2023-03-18T05:18:49;101136.97;;;3.78;86.42
8705;BME280;4389;41.932;25.904;2023-03-18T05:21:17;101136.38;;;3.90;86.03
8705;BME280;4389;41.932;25.904;2023-03-18T05:23:44;101129.59;;;4.03;85.24
8705;BME280;4389;41.932;25.904;2023-03-18T05:26:11;101138.06;;;3.91;85.11
8705;BME280;4389;41.932;25.904;2023-03-18T05:28:37;101136.38;;;3.90;85.52
8705;BME280;4389;41.932;25.904;2023-03-18T05:31:04;101135.13;;;3.97;84.84
8705;BME280;4389;41.932;25.904;2023-03-18T05:33:33;101132.06;;;3.89;85.01
8705;BME280;4389;41.932;25.904;2023-03-18T05:36:00;101134.81;;;4.03;84.81
8705;BME280;4389;41.932;25.904;2023-03-18T05:38:27;101138.50;;;4.16;84.35
8705;BME280;4389;41.932;25.904;2023-03-18T05:40:54;101133.28;;;4.16;84.46
8705;BME280;4389;41.932;25.904;2023-03-18T05:43:21;101133.28;;;3.99;84.14
8705;BME280;4389;41.932;25.904;2023-03-18T05:45:49;101131.13;;;3.90;84.72
8705;BME280;4389;41.932;25.904;2023-03-18T05:48:16;101135.13;;;3.97;85.33
8705;BME280;4389;41.932;25.904;2023-03-18T05:50:44;101135.88;;;3.99;85.67
8705;BME280;4389;41.932;25.904;2023-03-18T05:53:12;101135.06;;;3.99;85.63
8705;BME280;4389;41.932;25.904;2023-03-18T05:55:41;101129.97;;;3.96;86.06
8705;BME280;4389;41.932;25.904;2023-03-18T05:58:08;101134.50;;;3.92;86.58
8705;BME280;4389;41.932;25.904;2023-03-18T06:00:35;101138.75;;;3.95;87.38
8705;BME280;4389;41.932;25.904;2023-03-18T06:03:02;101128.03;;;3.99;87.11
8705;BME280;4389;41.932;25.904;2023-03-18T06:05:29;101132.41;;;4.16;87.34
8705;BME280;4389;41.932;25.904;2023-03-18T06:07:57;101129.41;;;4.23;86.11
8705;BME280;4389;41.932;25.904;2023-03-18T06:10:25;101130.66;;;4.31;86.26
8705;BME280;4389;41.932;25.904;2023-03-18T06:12:52;101127.81;;;4.36;85.17
8705;BME280;4389;41.932;25.904;2023-03-18T06:15:20;101126.13;;;4.35;85.52
8705;BME280;4389;41.932;25.904;2023-03-18T06:17:47;101123.72;;;4.47;86.31
8705;BME280;4389;41.932;25.904;2023-03-18T06:20:15;101122.84;;;4.47;86.15
8705;BME280;4389;41.932;25.904;2023-03-18T06:22:43;101114.00;;;4.49;85.60
8705;BME280;4389;41.932;25.904;2023-03-18T06:25:16;101119.81;;;4.54;86.89
8705;BME280;4389;41.932;25.904;2023-03-18T06:27:43;101121.84;;;4.65;86.95
8705;BME280;4389;41.932;25.904;2023-03-18T06:30:12;101123.94;;;4.43;87.05
8705;BME280;4389;41.932;25.904;2023-03-18T06:32:39;101126.53;;;4.60;88.52
8705;BME280;4389;41.932;25.904;2023-03-18T06:35:07;101124.84;;;4.90;88.11
8705;BME280;4389;41.932;25.904;2023-03-18T06:37:35;101120.47;;;4.90;86.83
8705;BME280;4389;41.932;25.904;2023-03-18T06:40:02;101112.69;;;5.04;87.42
8705;BME280;4389;41.932;25.904;2023-03-18T06:42:31;101121.19;;;5.23;86.54
8705;BME280;4389;41.932;25.904;2023-03-18T06:44:59;101119.53;;;5.52;86.38
8705;BME280;4389;41.932;25.904;2023-03-18T06:47:26;101123.50;;;5.59;86.11
8705;BME280;4389;41.932;25.904;2023-03-18T06:49:53;101116.47;;;5.89;86.75
8705;BME280;4389;41.932;25.904;2023-03-18T06:52:20;101110.50;;;6.01;85.57
8705;BME280;4389;41.932;25.904;2023-03-18T06:54:48;101119.44;;;6.12;81.87
8705;BME280;4389;41.932;25.904;2023-03-18T06:57:15;101120.66;;;6.35;76.18
8705;BME280;4389;41.932;25.904;2023-03-18T06:59:43;101126.09;;;6.60;74.65
8705;BME280;4389;41.932;25.904;2023-03-18T07:02:10;101126.56;;;7.07;73.98
8705;BME280;4389;41.932;25.904;2023-03-18T07:04:37;101135.59;;;7.56;68.75
8705;BME280;4389;41.932;25.904;2023-03-18T07:07:04;101123.25;;;7.95;66.97
8705;BME280;4389;41.932;25.904;2023-03-18T07:09:32;101129.84;;;8.15;62.63
8705;BME280;4389;41.932;25.904;2023-03-18T07:11:59;101122.28;;;8.23;59.75
8705;BME280;4389;41.932;25.904;2023-03-18T07:14:26;101116.78;;;8.51;60.80
8705;BME280;4389;41.932;25.904;2023-03-18T07:16:55;101119.44;;;8.51;62.30
8705;BME280;4389;41.932;25.904;2023-03-18T07:19:22;101124.97;;;8.71;63.98
8705;BME280;4389;41.932;25.904;2023-03-18T07:21:48;101115.06;;;8.75;60.30
8705;BME280;4389;41.932;25.904;2023-03-18T07:24:15;101116.13;;;8.60;63.70
8705;BME280;4389;41.932;25.904;2023-03-18T07:26:45;101130.34;;;8.70;64.68
8705;BME280;4389;41.932;25.904;2023-03-18T07:29:14;101120.13;;;8.65;59.74
8705;BME280;4389;41.932;25.904;2023-03-18T07:31:41;101116.22;;;8.58;56.54
8705;BME280;4389;41.932;25.904;2023-03-18T07:34:10;101113.59;;;8.71;58.98
8705;BME280;4389;41.932;25.904;2023-03-18T07:36:37;101116.38;;;8.57;56.39
8705;BME280;4389;41.932;25.904;2023-03-18T07:39:05;101113.41;;;8.61;57.35
8705;BME280;4389;41.932;25.904;2023-03-18T07:41:32;101115.63;;;9.03;56.84
8705;BME280;4389;41.932;25.904;2023-03-18T07:43:59;101126.50;;;9.34;55.41
8705;BME280;4389;41.932;25.904;2023-03-18T07:46:26;101123.63;;;9.37;55.03
8705;BME280;4389;41.932;25.904;2023-03-18T07:48:53;101125.63;;;9.57;53.69
8705;BME280;4389;41.932;25.904;2023-03-18T07:51:21;101131.00;;;9.79;53.43
8705;BME280;4389;41.932;25.904;2023-03-18T07:53:48;101125.13;;;9.87;52.87
8705;BME280;4389;41.932;25.904;2023-03-18T07:56:16;101122.84;;;9.82;55.04
8705;BME280;4389;41.932;25.904;2023-03-18T07:58:43;101143.50;;;9.88;53.22
8705;BME280;4389;41.932;25.904;2023-03-18T08:01:10;101126.44;;;9.81;52.76
8705;BME280;4389;41.932;25.904;2023-03-18T08:03:40;101130.03;;;10.04;51.97
8705;BME280;4389;41.932;25.904;2023-03-18T08:06:08;101120.81;;;10.20;50.81
8705;BME280;4389;41.932;25.904;2023-03-18T08:08:37;101118.16;;;10.31;52.72
8705;BME280;4389;41.932;25.904;2023-03-18T08:11:04;101122.75;;;10.29;51.16
8705;BME280;4389;41.932;25.904;2023-03-18T08:13:33;101114.44;;;10.34;51.74
8705;BME280;4389;41.932;25.904;2023-03-18T08:16:00;101129.22;;;10.25;53.52
8705;BME280;4389;41.932;25.904;2023-03-18T08:18:27;101124.66;;;10.38;51.26
8705;BME280;4389;41.932;25.904;2023-03-18T08:20:54;101125.63;;;10.37;50.63
8705;BME280;4389;41.932;25.904;2023-03-18T08:23:21;101134.28;;;10.39;50.16
8705;BME280;4389;41.932;25.904;2023-03-18T08:25:49;101127.56;;;10.35;48.92
8705;BME280;4389;41.932;25.904;2023-03-18T08:28:16;101125.28;;;10.53;48.52
8705;BME280;4389;41.932;25.904;2023-03-18T08:30:43;101127.44;;;10.48;51.03
8705;BME280;4389;41.932;25.904;2023-03-18T08:33:11;101125.66;;;10.59;50.80
8705;BME280;4389;41.932;25.904;2023-03-18T08:35:38;101133.09;;;10.65;51.40
8705;BME280;4389;41.932;25.904;2023-03-18T08:38:06;101130.69;;;10.51;51.37
8705;BME280;4389;41.932;25.904;2023-03-18T08:40:34;101135.28;;;10.49;51.96
8705;BME280;4389;41.932;25.904;2023-03-18T08:43:02;101125.13;;;10.32;51.61
8705;BME280;4389;41.932;25.904;2023-03-18T08:45:29;101137.66;;;10.30;51.43
8705;BME280;4389;41.932;25.904;2023-03-18T08:47:55;101127.91;;;10.31;52.42
8705;BME280;4389;41.932;25.904;2023-03-18T08:50:23;101126.47;;;10.16;51.44
8705;BME280;4389;41.932;25.904;2023-03-18T08:52:54;101132.34;;;10.19;52.76
8705;BME280;4389;41.932;25.904;2023-03-18T08:55:26;101127.31;;;10.60;51.11
8705;BME280;4389;41.932;25.904;2023-03-18T08:57:54;101127.44;;;10.70;50.75
8705;BME280;4389;41.932;25.904;2023-03-18T09:00:22;101142.47;;;10.80;51.34
8705;BME280;4389;41.932;25.904;2023-03-18T09:02:49;101137.31;;;10.57;50.81
8705;BME280;4389;41.932;25.904;2023-03-18T09:05:16;101142.50;;;10.58;49.72
8705;BME280;4389;41.932;25.904;2023-03-18T09:07:43;101149.31;;;10.50;50.59
8705;BME280;4389;41.932;25.904;2023-03-18T09:10:11;101142.47;;;10.36;48.86
8705;BME280;4389;41.932;25.904;2023-03-18T09:12:39;101144.72;;;10.19;49.59
8705;BME280;4389;41.932;25.904;2023-03-18T09:15:07;101155.09;;;10.33;50.42
8705;BME280;4389;41.932;25.904;2023-03-18T09:17:37;101157.69;;;10.22;48.91
8705;BME280;4389;41.932;25.904;2023-03-18T09:20:06;101142.53;;;10.13;47.96
8705;BME280;4389;41.932;25.904;2023-03-18T09:22:33;101149.81;;;9.98;50.91
8705;BME280;4389;41.932;25.904;2023-03-18T09:25:00;101140.66;;;9.91;49.47
8705;BME280;4389;41.932;25.904;2023-03-18T09:27:27;101148.28;;;10.07;49.20
8705;BME280;4389;41.932;25.904;2023-03-18T09:29:54;101150.53;;;10.00;47.25
8705;BME280;4389;41.932;25.904;2023-03-18T09:32:21;101153.38;;;9.97;46.59
8705;BME280;4389;41.932;25.904;2023-03-18T09:34:50;101152.66;;;9.84;47.28
8705;BME280;4389;41.932;25.904;2023-03-18T09:37:17;101153.03;;;9.91;47.91
8705;BME280;4389;41.932;25.904;2023-03-18T09:39:44;101149.25;;;9.82;47.25
8705;BME280;4389;41.932;25.904;2023-03-18T09:42:27;101154.72;;;9.68;48.47
8705;BME280;4389;41.932;25.904;2023-03-18T09:45:00;101161.25;;;9.75;49.86
8705;BME280;4389;41.932;25.904;2023-03-18T09:47:49;101160.28;;;9.76;50.42
8705;BME280;4389;41.932;25.904;2023-03-18T09:50:33;101161.41;;;9.61;50.15
8705;BME280;4389;41.932;25.904;2023-03-18T09:53:13;101158.84;;;9.72;50.90
8705;BME280;4389;41.932;25.904;2023-03-18T09:55:43;101158.38;;;9.78;51.78
8705;BME280;4389;41.932;25.904;2023-03-18T09:58:26;101166.69;;;9.61;51.69
8705;BME280;4389;41.932;25.904;2023-03-18T10:00:56;101160.41;;;9.51;50.85
8705;BME280;4389;41.932;25.904;2023-03-18T10:03:30;101167.38;;;9.52;51.97
8705;BME280;4389;41.932;25.904;2023-03-18T10:06:05;101160.88;;;9.45;50.33
8705;BME280;4389;41.932;25.904;2023-03-18T10:08:53;101158.09;;;9.23;49.40
8705;BME280;4389;41.932;25.904;2023-03-18T10:11:28;101155.97;;;9.28;49.93
8705;BME280;4389;41.932;25.904;2023-03-18T10:14:07;101158.38;;;9.31;50.03
8705;BME280;4389;41.932;25.904;2023-03-18T10:16:46;101151.97;;;9.46;50.20
8705;BME280;4389;41.932;25.904;2023-03-18T10:19:14;101149.63;;;9.54;48.51
8705;BME280;4389;41.932;25.904;2023-03-18T10:21:49;101144.91;;;9.70;48.65
8705;BME280;4389;41.932;25.904;2023-03-18T10:24:27;101139.69;;;9.92;47.33
8705;BME280;4389;41.932;25.904;2023-03-18T10:27:08;101141.94;;;10.09;45.00
8705;BME280;4389;41.932;25.904;2023-03-18T10:29:41;101148.06;;;10.10;45.11
8705;BME280;4389;41.932;25.904;2023-03-18T10:32:22;101127.56;;;10.35;45.31
8705;BME280;4389;41.932;25.904;2023-03-18T10:35:07;101141.53;;;10.70;42.19
8705;BME280;4389;41.932;25.904;2023-03-18T10:37:50;101136.69;;;10.75;42.02
8705;BME280;4389;41.932;25.904;2023-03-18T10:40:18;101142.56;;;11.01;43.42
8705;BME280;4389;41.932;25.904;2023-03-18T10:42:46;101141.25;;;11.06;41.24
8705;BME280;4389;41.932;25.904;2023-03-18T10:45:20;101126.09;;;10.97;41.69
8705;BME280;4389;41.932;25.904;2023-03-18T10:47:52;101125.88;;;11.00;40.86
8705;BME280;4389;41.932;25.904;2023-03-18T10:50:25;101118.88;;;10.99;41.99
8705;BME280;4389;41.932;25.904;2023-03-18T10:53:01;101121.72;;;11.18;41.31
8705;BME280;4389;41.932;25.904;2023-03-18T10:55:35;101113.97;;;10.84;43.27
8705;BME280;4389;41.932;25.904;2023-03-18T10:58:14;101110.97;;;10.77;42.65
8705;BME280;4389;41.932;25.904;2023-03-18T11:00:41;101103.69;;;11.12;41.50
8705;BME280;4389;41.932;25.904;2023-03-18T11:03:18;101103.47;;;11.47;42.25
8705;BME280;4389;41.932;25.904;2023-03-18T11:05:46;101107.06;;;11.14;42.40
8705;BME280;4389;41.932;25.904;2023-03-18T11:08:34;101106.78;;;11.17;40.46
8705;BME280;4389;41.932;25.904;2023-03-18T11:11:19;101103.00;;;10.99;41.78
8705;BME280;4389;41.932;25.904;2023-03-18T11:13:49;101101.66;;;11.05;41.52
8705;BME280;4389;41.932;25.904;2023-03-18T11:16:22;101096.47;;;11.03;42.16
8705;BME280;4389;41.932;25.904;2023-03-18T11:18:51;101097.00;;;11.40;41.65
8705;BME280;4389;41.932;25.904;2023-03-18T11:21:19;101087.47;;;11.37;43.32
8705;BME280;4389;41.932;25.904;2023-03-18T11:23:55;101091.41;;;11.43;41.01
8705;BME280;4389;41.932;25.904;2023-03-18T11:26:46;101091.03;;;11.58;41.70
8705;BME280;4389;41.932;25.904;2023-03-18T11:29:20;101082.66;;;11.42;39.74
8705;BME280;4389;41.932;25.904;2023-03-18T11:31:50;101083.22;;;11.14;41.87
8705;BME280;4389;41.932;25.904;2023-03-18T11:34:19;101085.81;;;11.36;42.04
8705;BME280;4389;41.932;25.904;2023-03-18T11:36:53;101092.34;;;11.21;41.14
8705;BME280;4389;41.932;25.904;2023-03-18T11:39:24;101090.22;;;11.04;41.08
8705;BME280;4389;41.932;25.904;2023-03-18T11:41:52;101086.63;;;11.05;40.05
8705;BME280;4389;41.932;25.904;2023-03-18T11:44:24;101069.03;;;11.04;40.64
8705;BME280;4389;41.932;25.904;2023-03-18T11:46:54;101077.22;;;11.12;40.59
8705;BME280;4389;41.932;25.904;2023-03-18T11:49:26;101076.25;;;11.02;40.98
8705;BME280;4389;41.932;25.904;2023-03-18T11:52:05;101074.59;;;11.01;41.54
8705;BME280;4389;41.932;25.904;2023-03-18T11:54:56;101068.00;;;10.85;42.38
8705;BME280;4389;41.932;25.904;2023-03-18T11:57:31;101066.09;;;10.87;42.57
8705;BME280;4389;41.932;25.904;2023-03-18T12:00:10;101061.88;;;10.84;43.16
8705;BME280;4389;41.932;25.904;2023-03-18T12:02:58;101064.00;;;10.90;42.61
8705;BME280;4389;41.932;25.904;2023-03-18T12:05:38;101065.66;;;11.13;42.57
8705;BME280;4389;41.932;25.904;2023-03-18T12:08:18;101054.84;;;11.05;42.18
8705;BME280;4389;41.932;25.904;2023-03-18T12:10:55;101046.44;;;10.89;42.55
8705;BME280;4389;41.932;25.904;2023-03-18T12:13:37;101051.72;;;11.00;43.58
8705;BME280;4389;41.932;25.904;2023-03-18T12:16:16;101044.97;;;10.96;42.77
8705;BME280;4389;41.932;25.904;2023-03-18T12:18:57;101044.69;;;11.10;42.94
8705;BME280;4389;41.932;25.904;2023-03-18T12:21:45;101033.59;;;11.27;42.05
8705;BME280;4389;41.932;25.904;2023-03-18T12:24:31;101039.31;;;11.01;41.43
8705;BME280;4389;41.932;25.904;2023-03-18T12:27:10;101028.28;;;11.27;42.49
8705;BME280;4389;41.932;25.904;2023-03-18T12:29:50;101035.84;;;11.63;43.21
8705;BME280;4389;41.932;25.904;2023-03-18T12:32:25;101036.25;;;11.48;41.00
8705;BME280;4389;41.932;25.904;2023-03-18T12:35:06;101030.22;;;11.77;42.08
8705;BME280;4389;41.932;25.904;2023-03-18T12:37:42;101021.19;;;11.48;41.52
8705;BME280;4389;41.932;25.904;2023-03-18T12:40:32;101023.41;;;11.32;41.80
8705;BME280;4389;41.932;25.904;2023-03-18T12:43:23;101016.91;;;11.36;42.40
8705;BME280;4389;41.932;25.904;2023-03-18T12:45:59;101016.31;;;11.64;41.84
8705;BME280;4389;41.932;25.904;2023-03-18T12:48:29;101013.38;;;11.47;40.93
8705;BME280;4389;41.932;25.904;2023-03-18T12:51:01;101019.88;;;11.22;41.74
8705;BME280;4389;41.932;25.904;2023-03-18T12:53:33;101021.94;;;11.39;41.75
8705;BME280;4389;41.932;25.904;2023-03-18T12:56:02;101020.16;;;11.40;40.67
8705;BME280;4389;41.932;25.904;2023-03-18T12:58:36;101012.16;;;11.51;41.37
8705;BME280;4389;41.932;25.904;2023-03-18T13:01:06;101010.75;;;11.67;39.64
8705;BME280;4389;41.932;25.904;2023-03-18T13:03:42;101003.81;;;11.55;39.85
8705;BME280;4389;41.932;25.904;2023-03-18T13:06:14;101011.00;;;11.64;39.38
8705;BME280;4389;41.932;25.904;2023-03-18T13:08:50;100998.47;;;11.66;40.07
8705;BME280;4389;41.932;25.904;2023-03-18T13:11:42;101006.09;;;11.80;40.00
8705;BME280;4389;41.932;25.904;2023-03-18T13:14:18;100992.38;;;11.75;37.48
8705;BME280;4389;41.932;25.904;2023-03-18T13:16:49;101005.50;;;11.97;38.45
8705;BME280;4389;41.932;25.904;2023-03-18T13:19:17;101006.44;;;11.96;37.95
8705;BME280;4389;41.932;25.904;2023-03-18T13:21:46;100998.84;;;11.82;38.49
8705;BME280;4389;41.932;25.904;2023-03-18T13:24:31;100987.47;;;11.91;37.86